Time;durP1;ratioP1;P1;durP2;ratioP2;P2;SDS_P1;SDS_P2;PMS_P1;PMS_P2;Temp;Humidity;BMP_temperature;BMP_pressure;BME280_temperature;BME280_humidity;BME280_pressure;Samples;Min_cycle;Max_cycle;Signal;HPM_P1;HPM_P2
2023/06/21 00:00:18;;;;;;;5.90;3.75;;;;;;;25.13;51.34;101137.38;5123511;28;20109;-64
2023/06/21 00:02:47;;;;;;;4.50;3.45;;;;;;;25.11;50.95;101128.63;5113622;28;20058;-64
2023/06/21 00:05:16;;;;;;;5.72;3.67;;;;;;;25.10;50.78;101135.25;5122594;28;20139;-64
2023/06/21 00:07:44;;;;;;;6.10;3.67;;;;;;;25.08;51.24;101129.25;5113086;28;20051;-64
2023/06/21 00:10:12;;;;;;;5.97;3.53;;;;;;;25.07;51.18;101133.13;5120624;28;20050;-65
2023/06/21 00:12:40;;;;;;;5.97;3.75;;;;;;;25.06;51.05;101139.75;5120499;28;20047;-64
2023/06/21 00:15:09;;;;;;;5.80;3.35;;;;;;;25.04;51.01;101144.75;5119091;28;20139;-64
2023/06/21 00:17:37;;;;;;;6.53;4.30;;;;;;;25.02;50.99;101144.25;5122020;28;20073;-64
2023/06/21 00:20:09;;;;;;;5.18;3.42;;;;;;;25.01;51.21;101152.81;5116393;28;20075;-64
2023/06/21 00:22:37;;;;;;;5.38;3.83;;;;;;;24.99;50.89;101150.38;5123497;28;20055;-63
2023/06/21 00:25:06;;;;;;;8.80;4.10;;;;;;;24.96;51.26;101150.97;5124240;28;20052;-64
2023/06/21 00:27:34;;;;;;;7.18;4.68;;;;;;;24.94;51.54;101139.47;5120030;28;20039;-63
2023/06/21 00:30:02;;;;;;;6.80;4.20;;;;;;;24.91;51.07;101135.41;5123702;28;20052;-63
2023/06/21 00:32:29;;;;;;;5.55;4.03;;;;;;;24.89;51.17;101136.84;5116368;28;20048;-65
2023/06/21 00:34:57;;;;;;;5.82;3.92;;;;;;;24.88;51.67;101130.53;5112033;28;20047;-64
2023/06/21 00:37:27;;;;;;;5.40;3.97;;;;;;;24.86;51.07;101137.47;5118641;28;20055;-64
2023/06/21 00:39:55;;;;;;;5.68;4.00;;;;;;;24.85;51.29;101144.06;5118252;28;20058;-65
2023/06/21 00:42:23;;;;;;;5.70;4.13;;;;;;;24.82;51.09;101152.94;5120637;28;20073;-62
2023/06/21 00:44:50;;;;;;;5.60;3.72;;;;;;;24.80;51.10;101156.00;5126734;28;20044;-64
2023/06/21 00:47:19;;;;;;;4.82;3.83;;;;;;;24.78;51.43;101155.50;5116900;28;20040;-64
2023/06/21 00:49:46;;;;;;;6.40;3.85;;;;;;;24.77;51.18;101161.31;5126994;28;20052;-64
2023/06/21 00:52:14;;;;;;;7.55;3.92;;;;;;;24.75;51.31;101155.31;5119792;28;20151;-63
2023/06/21 00:54:45;;;;;;;5.20;3.90;;;;;;;24.75;51.80;101149.81;5126688;28;20101;-63
2023/06/21 00:57:13;;;;;;;5.13;3.85;;;;;;;24.71;51.64;101160.59;5119858;28;20055;-64
2023/06/21 00:59:41;;;;;;;4.65;3.72;;;;;;;24.69;52.25;101157.34;5125673;28;20044;-63
2023/06/21 01:02:09;;;;;;;8.55;4.13;;;;;;;24.64;51.85;101150.03;5125061;28;20086;-62
2023/06/21 01:04:37;;;;;;;6.65;4.00;;;;;;;24.65;51.68;101162.66;5122921;28;20047;-64
2023/06/21 01:07:16;;;;;;;4.35;3.53;;;;;;;24.62;52.21;101156.97;5125114;28;20047;-63
2023/06/21 01:10:01;;;;;;;6.22;4.32;;;;;;;24.59;52.14;101154.84;5121445;28;20051;-62
2023/06/21 01:12:42;;;;;;;7.18;4.18;;;;;;;24.54;51.79;101155.75;5122529;28;20074;-64
2023/06/21 01:15:16;;;;;;;5.65;3.90;;;;;;;24.53;52.11;101156.88;5117399;28;20047;-65
2023/06/21 01:17:47;;;;;;;6.28;4.30;;;;;;;24.51;52.00;101150.06;5120994;28;20050;-63
2023/06/21 01:20:24;;;;;;;5.68;3.90;;;;;;;24.49;52.30;101157.81;5122998;28;20098;-63
2023/06/21 01:23:14;;;;;;;7.70;4.38;;;;;;;24.45;52.41;101149.34;5124990;28;20527;-63
2023/06/21 01:25:55;;;;;;;5.30;4.07;;;;;;;24.47;52.48;101157.28;5120812;28;20120;-63
2023/06/21 01:28:41;;;;;;;5.30;4.10;;;;;;;24.42;52.25;101155.47;5125814;28;20047;-62
2023/06/21 01:31:15;;;;;;;5.15;4.18;;;;;;;24.40;52.51;101160.47;5124062;28;20104;-65
2023/06/21 01:33:45;;;;;;;5.82;4.38;;;;;;;24.39;52.53;101172.56;5126891;28;20077;-65
2023/06/21 01:36:13;;;;;;;6.80;4.10;;;;;;;24.37;52.60;101174.81;5126186;28;20059;-65
2023/06/21 01:38:40;;;;;;;6.72;4.25;;;;;;;24.34;52.61;101170.75;5124473;28;20465;-63
2023/06/21 01:41:10;;;;;;;6.15;4.93;;;;;;;24.31;52.56;101174.09;5124064;28;20081;-63
2023/06/21 01:43:39;;;;;;;8.35;4.65;;;;;;;24.30;52.47;101177.16;5121214;28;20465;-63
2023/06/21 01:46:08;;;;;;;6.05;4.38;;;;;;;24.28;52.34;101165.66;5118841;28;20061;-64
2023/06/21 01:48:38;;;;;;;6.28;4.53;;;;;;;24.25;52.88;101163.53;5125843;28;20538;-64
2023/06/21 01:51:09;;;;;;;8.00;4.63;;;;;;;24.23;52.58;101163.81;5123232;28;20051;-64
2023/06/21 01:53:37;;;;;;;7.55;4.75;;;;;;;24.22;52.56;101173.19;5122843;28;20535;-65
2023/06/21 01:56:09;;;;;;;5.93;4.65;;;;;;;24.20;52.97;101174.59;5121704;28;20070;-64
2023/06/21 01:58:36;;;;;;;7.75;4.72;;;;;;;24.21;52.66;101184.47;5124937;28;20043;-65
2023/06/21 02:01:04;;;;;;;5.30;4.38;;;;;;;24.20;52.75;101185.59;5122233;28;20059;-65
2023/06/21 02:03:33;;;;;;;5.80;4.72;;;;;;;24.14;52.95;101168.41;5122601;28;20048;-62
2023/06/21 02:06:05;;;;;;;6.18;5.03;;;;;;;24.15;53.05;101180.19;5111445;28;20408;-62
2023/06/21 02:08:34;;;;;;;6.50;4.88;;;;;;;24.15;52.87;101182.94;5124311;28;20058;-63
2023/06/21 02:11:02;;;;;;;5.57;4.18;;;;;;;24.15;53.06;101188.44;5123533;28;20075;-63
2023/06/21 02:13:30;;;;;;;6.80;4.72;;;;;;;24.11;52.57;101182.75;5112058;28;20044;-63
2023/06/21 02:15:58;;;;;;;6.32;4.38;;;;;;;24.11;52.87;101196.47;5125145;28;20047;-64
2023/06/21 02:22:09;;;;;;;6.00;4.30;;;;;;;24.07;52.82;101214.69;5117044;28;20074;-65
2023/06/21 02:24:37;;;;;;;7.80;4.45;;;;;;;24.07;52.86;101217.41;5124922;28;20043;-63
2023/06/21 02:27:05;;;;;;;8.57;4.93;;;;;;;24.05;52.99;101216.91;5120450;28;20048;-64
2023/06/21 02:29:33;;;;;;;6.28;4.88;;;;;;;24.03;53.01;101213.66;5122387;28;20047;-63
2023/06/21 02:32:01;;;;;;;6.07;4.40;;;;;;;24.01;53.11;101229.63;5117574;28;20440;-65
2023/06/21 02:34:29;;;;;;;8.52;4.13;;;;;;;24.00;53.01;101236.22;5124029;28;20055;-63
2023/06/21 02:36:56;;;;;;;6.40;4.95;;;;;;;23.98;53.27;101231.03;5122729;28;20047;-65
2023/06/21 02:39:25;;;;;;;8.75;4.78;;;;;;;23.97;53.16;101232.16;5123400;28;20040;-63
2023/06/21 02:41:54;;;;;;;6.30;4.88;;;;;;;23.96;53.11;101226.97;5118869;28;20089;-64
2023/06/21 02:44:22;;;;;;;5.80;4.57;;;;;;;23.94;53.11;101230.00;5125124;28;20047;-63
2023/06/21 02:46:50;;;;;;;7.50;4.93;;;;;;;23.91;53.42;101238.84;5121964;28;20048;-64
2023/06/21 02:49:18;;;;;;;7.88;4.80;;;;;;;23.90;53.34;101239.97;5121642;28;20048;-63
2023/06/21 02:51:49;;;;;;;7.40;4.93;;;;;;;23.88;53.54;101244.13;5124850;28;20059;-63
2023/06/21 02:54:17;;;;;;;7.72;5.40;;;;;;;23.86;53.56;101241.69;5124409;28;20047;-63
2023/06/21 02:56:46;;;;;;;6.22;4.93;;;;;;;23.84;53.11;101249.41;5115156;28;20058;-64
2023/06/21 02:59:14;;;;;;;9.57;5.32;;;;;;;23.82;53.39;101240.66;5113973;28;20051;-63
2023/06/21 03:01:46;;;;;;;6.78;5.07;;;;;;;23.80;53.03;101248.38;5123382;28;20081;-62
2023/06/21 03:04:16;;;;;;;8.55;4.88;;;;;;;23.79;53.50;101256.91;5111624;28;20047;-65
2023/06/21 03:06:43;;;;;;;6.70;4.68;;;;;;;23.78;53.35;101271.75;5125327;28;20206;-65
2023/06/21 03:09:11;;;;;;;6.22;4.50;;;;;;;23.75;53.78;101266.88;5124450;28;20175;-62
2023/06/21 03:11:39;;;;;;;6.30;4.50;;;;;;;23.73;53.19;101260.88;5119737;28;20047;-63
2023/06/21 03:14:08;;;;;;;6.55;4.80;;;;;;;23.72;53.42;101272.94;5124432;28;20427;-63
2023/06/21 03:16:36;;;;;;;6.97;5.30;;;;;;;23.69;53.40;101268.88;5118368;28;20450;-63
2023/06/21 03:19:04;;;;;;;6.05;4.78;;;;;;;23.67;54.08;101276.59;5120578;28;20209;-63
2023/06/21 03:21:33;;;;;;;5.60;4.47;;;;;;;23.65;53.66;101287.88;5119162;28;20043;-63
2023/06/21 03:24:01;;;;;;;6.68;4.63;;;;;;;23.63;53.62;101292.03;5122655;28;20090;-64
2023/06/21 03:26:29;;;;;;;7.80;5.43;;;;;;;23.62;53.88;101290.41;5107496;28;20535;-64
2023/06/21 03:28:59;;;;;;;7.40;5.03;;;;;;;23.58;53.61;101284.69;5116073;28;20039;-64
2023/06/21 03:31:28;;;;;;;6.55;5.05;;;;;;;23.58;54.11;101281.13;5119326;28;20480;-64
2023/06/21 03:33:56;;;;;;;7.22;5.07;;;;;;;23.56;53.71;101284.16;5122316;28;20084;-64
2023/06/21 03:36:24;;;;;;;10.10;5.07;;;;;;;23.55;53.99;101285.28;5120387;28;20097;-64
2023/06/21 03:38:52;;;;;;;7.78;4.95;;;;;;;23.53;53.81;101287.47;5123819;28;20051;-64
2023/06/21 03:41:19;;;;;;;7.30;4.82;;;;;;;23.52;53.79;101287.78;5118072;28;20059;-63
2023/06/21 03:43:47;;;;;;;8.77;5.05;;;;;;;23.50;53.76;101274.34;5118181;28;20052;-65
2023/06/21 03:46:15;;;;;;;6.60;5.70;;;;;;;23.46;53.89;101267.84;5115399;28;20077;-64
2023/06/21 03:48:44;;;;;;;6.95;5.32;;;;;;;23.48;53.72;101271.09;5117289;28;20120;-60
2023/06/21 03:51:12;;;;;;;8.07;4.95;;;;;;;23.47;54.17;101276.88;5116343;28;20494;-63
2023/06/21 03:53:40;;;;;;;6.97;5.32;;;;;;;23.47;53.82;101283.19;5119456;28;20051;-63
2023/06/21 03:56:07;;;;;;;7.30;5.20;;;;;;;23.45;54.31;101279.09;5123188;28;20512;-63
2023/06/21 03:58:35;;;;;;;7.85;5.60;;;;;;;23.45;53.95;101284.59;5122209;28;20181;-64
2023/06/21 04:01:03;;;;;;;11.63;5.40;;;;;;;23.43;54.16;101287.63;5118290;28;20051;-63
2023/06/21 04:03:31;;;;;;;9.20;5.55;;;;;;;23.42;53.92;101296.97;5122303;28;20047;-64
2023/06/21 04:06:00;;;;;;;9.82;5.70;;;;;;;23.41;54.15;101302.75;5121376;28;20048;-64
2023/06/21 04:08:28;;;;;;;6.97;4.22;;;;;;;23.40;53.64;101299.19;5119536;28;20062;-63
2023/06/21 04:10:56;;;;;;;5.68;4.53;;;;;;;23.39;53.43;101305.81;5119161;28;20176;-62
2023/06/21 04:13:24;;;;;;;10.05;5.20;;;;;;;23.38;53.65;101317.88;5120137;28;20043;-63
2023/06/21 04:15:52;;;;;;;7.80;5.07;;;;;;;23.36;53.45;101323.66;5117884;28;20121;-63
2023/06/21 04:18:20;;;;;;;6.55;4.97;;;;;;;23.35;54.04;101324.78;5119508;28;20043;-63
2023/06/21 04:20:49;;;;;;;7.72;5.07;;;;;;;23.35;53.50;101327.53;5127195;28;20120;-64
2023/06/21 04:23:18;;;;;;;6.75;5.32;;;;;;;23.33;53.74;101334.41;5126400;28;20044;-64
2023/06/21 04:25:46;;;;;;;9.00;5.15;;;;;;;23.32;53.52;101333.59;5125372;28;20078;-64
2023/06/21 04:28:14;;;;;;;5.63;4.65;;;;;;;23.31;53.64;101329.22;5123067;28;20062;-63
2023/06/21 04:30:42;;;;;;;7.20;5.30;;;;;;;23.30;53.88;101330.34;5125902;28;20059;-63
2023/06/21 04:33:10;;;;;;;8.25;4.95;;;;;;;23.28;53.92;101337.22;5123758;28;20047;-63
2023/06/21 04:35:38;;;;;;;6.30;4.85;;;;;;;23.27;54.08;101341.91;5127997;28;20047;-65
2023/06/21 04:38:06;;;;;;;10.70;5.30;;;;;;;23.27;53.96;101349.31;5123910;28;20081;-64
2023/06/21 04:40:35;;;;;;;6.63;5.35;;;;;;;;;;5127030;28;20069;-63
2023/06/21 04:43:06;;;;;;;8.32;5.80;;;;;;;23.25;54.69;101343.31;5114019;28;20040;-64
2023/06/21 04:45:34;;;;;;;6.75;5.30;;;;;;;23.23;54.59;101346.34;5125416;28;20169;-62
2023/06/21 04:48:03;;;;;;;7.55;5.47;;;;;;;23.22;54.52;101341.16;5122807;28;20042;-64
2023/06/21 04:50:31;;;;;;;6.93;5.20;;;;;;;23.21;54.26;101334.84;5119527;28;20051;-61
2023/06/21 04:52:59;;;;;;;8.90;5.63;;;;;;;23.19;54.38;101337.06;5123206;28;20047;-63
2023/06/21 04:55:28;;;;;;;9.68;5.80;;;;;;;23.20;54.39;101343.38;5127543;28;20058;-62
2023/06/21 04:57:58;;;;;;;8.32;5.10;;;;;;;23.18;54.63;101340.91;5123578;28;20044;-63
2023/06/21 05:00:27;;;;;;;6.97;5.50;;;;;;;23.17;54.33;101335.72;5125472;28;20508;-66
2023/06/21 05:02:56;;;;;;;8.25;4.97;;;;;;;23.17;54.41;101342.03;5118212;28;20047;-65
2023/06/21 05:05:24;;;;;;;5.88;4.97;;;;;;;23.15;54.77;101352.47;5114032;28;20125;-65
2023/06/21 05:07:52;;;;;;;8.23;6.07;;;;;;;23.13;54.90;101362.91;5127688;28;20044;-65
2023/06/21 05:10:20;;;;;;;7.45;5.95;;;;;;;23.13;54.97;101353.88;5126091;28;20044;-67
2023/06/21 05:12:47;;;;;;;9.05;6.35;;;;;;;23.12;55.13;101358.56;5123153;28;20048;-67
2023/06/21 05:15:17;;;;;;;9.48;5.55;;;;;;;23.11;55.22;101370.63;5120727;28;20070;-64
2023/06/21 05:17:45;;;;;;;7.55;5.63;;;;;;;23.10;55.25;101377.22;5121439;28;20054;-65
2023/06/21 05:20:13;;;;;;;7.07;5.50;;;;;;;23.11;54.79;101386.25;5119741;28;20047;-62
2023/06/21 05:22:42;;;;;;;8.35;6.35;;;;;;;23.11;54.72;101380.78;5124898;28;20051;-62
2023/06/21 05:25:10;;;;;;;7.97;5.90;;;;;;;23.12;54.56;101380.47;5123153;28;20049;-64
2023/06/21 05:27:38;;;;;;;7.38;5.20;;;;;;;23.13;54.62;101384.84;5122603;28;20504;-64
2023/06/21 05:30:07;;;;;;;8.05;5.13;;;;;;;23.13;54.62;101379.38;5124075;28;20120;-63
2023/06/21 05:32:37;;;;;;;7.90;5.75;;;;;;;23.14;54.79;101374.72;5123864;28;20051;-64
2023/06/21 05:35:05;;;;;;;8.45;5.47;;;;;;;23.14;54.59;101371.97;5119408;28;20055;-64
2023/06/21 05:37:33;;;;;;;7.35;5.68;;;;;;;23.15;54.52;101379.91;5124348;28;20055;-63
2023/06/21 05:40:02;;;;;;;6.20;5.57;;;;;;;23.18;54.94;101378.50;4767648;28;9999782;-64
2023/06/21 05:42:30;;;;;;;6.75;5.60;;;;;;;23.18;54.58;101378.50;5118574;28;20516;-65
2023/06/21 05:44:58;;;;;;;7.10;5.50;;;;;;;23.20;54.83;101387.25;5117562;28;20058;-63
2023/06/21 05:47:26;;;;;;;7.22;5.05;;;;;;;23.20;54.67;101396.28;5117550;28;20083;-63
2023/06/21 05:49:56;;;;;;;6.07;4.85;;;;;;;23.21;54.17;101399.84;5120473;28;20040;-63
2023/06/21 05:52:23;;;;;;;9.27;5.22;;;;;;;23.22;54.55;101394.06;5118676;28;20052;-62
2023/06/21 05:54:51;;;;;;;7.68;5.30;;;;;;;23.24;54.66;101402.00;5119105;28;20047;-64
2023/06/21 05:57:19;;;;;;;6.85;5.20;;;;;;;23.25;54.96;101407.19;5119631;28;20044;-64
2023/06/21 05:59:47;;;;;;;7.57;5.35;;;;;;;23.28;54.39;101409.34;5119149;28;20051;-64
2023/06/21 06:02:14;;;;;;;7.70;5.63;;;;;;;23.30;54.84;101414.53;5118847;28;20056;-64
2023/06/21 06:04:42;;;;;;;7.80;5.35;;;;;;;23.29;54.73;101405.50;5115940;28;20063;-67
2023/06/21 06:07:12;;;;;;;7.25;5.80;;;;;;;23.31;54.51;101411.50;5116524;28;20048;-63
2023/06/21 06:09:40;;;;;;;7.72;6.57;;;;;;;23.33;55.11;101416.69;5120055;28;20048;-65
2023/06/21 06:12:08;;;;;;;9.90;6.57;;;;;;;23.33;55.89;101417.53;5120564;28;20305;-62
2023/06/21 06:14:37;;;;;;;9.75;6.20;;;;;;;23.33;55.60;101420.25;5121062;28;20520;-63
2023/06/21 06:17:05;;;;;;;11.70;7.15;;;;;;;23.32;55.35;101421.38;5123883;28;20063;-61
2023/06/21 06:19:32;;;;;;;9.48;6.40;;;;;;;23.32;55.13;101426.84;5125941;28;20065;-62
2023/06/21 06:22:00;;;;;;;10.85;6.05;;;;;;;23.33;55.11;101433.16;5121779;28;20058;-62
2023/06/21 06:24:29;;;;;;;8.57;5.65;;;;;;;23.23;55.13;101420.38;5126153;28;20048;-63
2023/06/21 06:26:57;;;;;;;9.55;6.30;;;;;;;23.29;55.18;101438.41;5124834;28;20461;-61
2023/06/21 06:29:25;;;;;;;7.90;6.55;;;;;;;23.32;55.12;101448.00;5116844;28;20044;-63
2023/06/21 06:31:52;;;;;;;7.10;6.03;;;;;;;23.33;54.85;101453.19;5121144;28;20044;-62
2023/06/21 06:34:21;;;;;;;8.23;6.07;;;;;;;23.27;54.94;101442.56;5115572;28;20047;-63
2023/06/21 06:36:49;;;;;;;8.85;5.75;;;;;;;23.32;54.90;101459.78;5125117;28;20052;-62
2023/06/21 06:39:38;;;;;;;6.38;5.63;;;;;;;23.36;54.87;101465.50;5124919;28;20075;-61
2023/06/21 06:42:06;;;;;;;7.22;5.75;;;;;;;23.36;54.39;101476.47;5119197;28;20052;-62
2023/06/21 06:44:34;;;;;;;8.25;5.85;;;;;;;23.36;54.58;101480.03;5118599;28;20150;-63
2023/06/21 06:47:02;;;;;;;7.18;5.55;;;;;;;23.28;54.59;101460.66;5120359;28;20048;-62
2023/06/21 06:49:29;;;;;;;7.45;5.75;;;;;;;23.37;54.33;101478.91;5125414;28;20135;-62
2023/06/21 06:51:57;;;;;;;8.40;5.30;;;;;;;23.38;54.29;101482.47;5123355;28;20043;-63
2023/06/21 06:54:25;;;;;;;7.43;6.15;;;;;;;23.38;54.70;101485.22;5123925;28;20048;-63
2023/06/21 06:56:54;;;;;;;5.82;5.20;;;;;;;23.40;54.27;101493.97;5119254;28;20047;-63
2023/06/21 06:59:23;;;;;;;6.88;5.38;;;;;;;23.41;54.66;101492.88;5125088;28;20039;-62
2023/06/21 07:01:51;;;;;;;7.03;5.65;;;;;;;23.42;54.51;101497.25;5123066;28;20138;-63
2023/06/21 07:04:18;;;;;;;8.48;5.43;;;;;;;23.43;54.36;101496.13;5118886;28;20044;-62
2023/06/21 07:06:47;;;;;;;8.52;5.70;;;;;;;23.43;54.47;101498.88;5114361;28;20048;-62
2023/06/21 07:09:14;;;;;;;6.45;5.28;;;;;;;23.44;54.52;101496.94;5124814;28;20043;-61
2023/06/21 07:11:42;;;;;;;9.73;6.03;;;;;;;23.42;54.34;101505.47;5113917;28;20077;-62
2023/06/21 07:14:11;;;;;;;9.10;5.82;;;;;;;23.41;54.62;101503.84;5124635;28;20366;-63
2023/06/21 07:16:42;;;;;;;7.75;5.10;;;;;;;23.41;54.32;101503.84;5120522;28;20046;-62
2023/06/21 07:19:09;;;;;;;7.05;5.38;;;;;;;23.40;54.55;101507.69;5124856;28;20119;-62
2023/06/21 07:21:39;;;;;;;7.30;5.40;;;;;;;23.40;54.68;101502.22;5121951;28;20047;-63
2023/06/21 07:24:06;;;;;;;6.03;5.25;;;;;;;23.40;54.46;101502.22;5124493;28;20062;-63
2023/06/21 07:26:34;;;;;;;7.85;5.25;;;;;;;23.40;54.34;101502.22;5123087;28;20069;-63
2023/06/21 07:29:02;;;;;;;7.82;5.40;;;;;;;23.41;54.85;101497.53;5115691;28;20039;-63
2023/06/21 07:31:32;;;;;;;6.85;5.30;;;;;;;23.42;54.79;101504.66;5122987;28;20071;-63
2023/06/21 07:34:01;;;;;;;5.95;4.95;;;;;;;23.42;54.41;101508.22;5123781;28;20139;-63
2023/06/21 07:36:35;;;;;;;7.10;5.55;;;;;;;23.43;54.21;101500.81;5122705;28;20151;-62
2023/06/21 07:39:05;;;;;;;7.32;5.63;;;;;;;23.44;54.24;101505.19;5120630;28;20424;-63
2023/06/21 07:41:33;;;;;;;7.25;5.30;;;;;;;23.44;54.76;101503.25;5123440;28;20051;-62
2023/06/21 07:44:01;;;;;;;9.20;5.97;;;;;;;23.45;54.41;101504.91;5122674;28;20082;-62
2023/06/21 07:46:29;;;;;;;5.93;4.90;;;;;;;23.46;54.36;101505.72;5117822;28;20085;-63
2023/06/21 07:48:58;;;;;;;8.20;5.43;;;;;;;23.47;54.74;101501.84;5123630;28;20048;-63
2023/06/21 07:51:26;;;;;;;6.15;4.75;;;;;;;23.47;54.59;101505.41;5118658;28;20097;-63
2023/06/21 07:53:54;;;;;;;7.97;5.65;;;;;;;23.48;54.13;101506.22;5127848;28;20075;-63
2023/06/21 07:56:22;;;;;;;8.15;4.90;;;;;;;23.49;54.15;101516.91;5128095;28;20055;-63
2023/06/21 07:58:49;;;;;;;8.00;5.05;;;;;;;23.50;54.78;101515.81;5118814;28;20505;-63
2023/06/21 08:01:17;;;;;;;6.55;5.30;;;;;;;23.52;54.18;101519.06;5123821;28;20055;-63
2023/06/21 08:03:45;;;;;;;11.48;5.78;;;;;;;23.52;54.33;101521.81;5122360;28;20059;-63
2023/06/21 08:06:15;;;;;;;6.88;4.82;;;;;;;23.54;54.66;101529.78;5123713;28;20138;-62
2023/06/21 08:08:42;;;;;;;7.60;5.28;;;;;;;23.55;54.52;101534.16;5122734;28;20070;-63
2023/06/21 08:11:10;;;;;;;6.30;4.40;;;;;;;23.55;54.37;101534.16;5120942;28;20078;-63
2023/06/21 08:13:38;;;;;;;6.50;4.50;;;;;;;23.55;54.26;101525.94;5120335;28;20428;-63
2023/06/21 08:16:06;;;;;;;8.75;4.82;;;;;;;23.56;54.09;101535.81;5125663;28;20078;-62
2023/06/21 08:18:33;;;;;;;7.82;4.30;;;;;;;23.54;53.77;101535.28;5123351;28;20044;-61
2023/06/21 08:21:01;;;;;;;5.78;4.53;;;;;;;23.55;54.00;101535.00;5124366;28;20055;-63
2023/06/21 08:23:30;;;;;;;4.72;3.72;;;;;;;23.55;54.32;101536.91;5119636;28;20051;-63
2023/06/21 08:25:58;;;;;;;6.00;4.60;;;;;;;23.57;54.21;101540.19;5123709;28;20105;-62
2023/06/21 08:28:26;;;;;;;6.68;4.93;;;;;;;23.55;54.29;101545.97;5124571;28;20077;-63
2023/06/21 08:30:54;;;;;;;5.70;4.60;;;;;;;23.57;54.31;101546.50;5126936;28;20116;-62
2023/06/21 08:33:22;;;;;;;5.30;4.15;;;;;;;23.57;54.02;101541.00;5123292;28;20047;-63
2023/06/21 08:35:49;;;;;;;6.82;4.90;;;;;;;23.59;54.09;101552.50;5128233;28;20051;-63
2023/06/21 08:38:17;;;;;;;7.90;5.47;;;;;;;23.58;54.13;101542.63;5124111;28;20097;-64
2023/06/21 08:40:59;;;;;;;5.97;5.05;;;;;;;23.58;53.90;101528.09;5120999;28;20054;-62
2023/06/21 08:43:28;;;;;;;6.68;4.90;;;;;;;23.58;53.69;101531.66;5124789;28;20127;-62
2023/06/21 08:45:56;;;;;;;7.18;5.47;;;;;;;23.60;53.98;101534.13;5126537;28;20047;-62
2023/06/21 08:48:25;;;;;;;8.52;4.90;;;;;;;23.61;53.56;101538.50;5115140;28;20048;-62
2023/06/21 08:50:52;;;;;;;6.40;4.95;;;;;;;23.61;53.56;101539.31;5117371;28;20132;-62
2023/06/21 08:53:30;;;;;;;7.57;5.45;;;;;;;23.61;53.41;101539.31;5126112;28;20502;-63
2023/06/21 08:56:01;;;;;;;7.65;4.70;;;;;;;23.62;53.27;101532.72;5127497;28;20055;-63
2023/06/21 08:58:38;;;;;;;6.15;5.50;;;;;;;23.64;53.60;101538.72;5113316;28;20050;-64
2023/06/21 09:01:10;;;;;;;7.10;4.47;;;;;;;23.65;53.37;101539.53;5123122;28;20048;-64
2023/06/21 09:03:47;;;;;;;6.95;5.35;;;;;;;23.66;52.80;101543.91;5125103;28;20546;-62
2023/06/21 09:06:22;;;;;;;6.88;4.80;;;;;;;23.65;52.78;101545.84;5123929;28;20096;-63
2023/06/21 09:08:51;;;;;;;5.95;4.35;;;;;;;23.64;52.85;101541.47;5127522;28;20047;-62
2023/06/21 09:11:22;;;;;;;7.55;4.82;;;;;;;23.69;52.98;101548.81;5118604;28;20115;-63
2023/06/21 09:13:51;;;;;;;6.47;4.75;;;;;;;23.69;52.96;101557.06;5120434;28;20425;-63
2023/06/21 09:16:20;;;;;;;6.90;4.47;;;;;;;23.71;52.44;101556.75;5122984;28;20138;-63
2023/06/21 09:18:48;;;;;;;9.43;5.20;;;;;;;23.71;52.51;101559.50;5124417;28;20065;-62
2023/06/21 09:21:16;;;;;;;6.50;5.15;;;;;;;23.72;52.59;101553.72;5118491;28;20073;-62
2023/06/21 09:23:44;;;;;;;7.28;4.82;;;;;;;23.74;52.34;101550.69;5120619;28;20066;-62
2023/06/21 09:26:12;;;;;;;5.05;4.40;;;;;;;23.75;52.29;101547.66;5125523;28;20120;-62
2023/06/21 09:28:43;;;;;;;5.50;4.30;;;;;;;23.79;52.67;101550.63;5121117;28;20055;-63
2023/06/21 09:31:11;;;;;;;6.18;4.25;;;;;;;23.81;52.67;101551.97;5121459;28;20097;-63
2023/06/21 09:33:43;;;;;;;5.45;4.63;;;;;;;23.83;52.33;101546.19;5121990;28;20043;-64
2023/06/21 09:36:11;;;;;;;6.47;5.03;;;;;;;23.86;52.51;101562.06;5123001;28;20432;-63
2023/06/21 09:38:39;;;;;;;5.20;4.18;;;;;;;23.88;52.25;101563.41;5126748;28;20051;-63
2023/06/21 09:41:08;;;;;;;7.57;4.57;;;;;;;23.88;52.22;101562.59;5114530;28;20047;-63
2023/06/21 09:43:43;;;;;;;5.82;4.72;;;;;;;23.89;52.29;101556.00;5122922;28;20125;-63
2023/06/21 09:46:11;;;;;;;5.55;4.38;;;;;;;23.90;52.03;101555.69;5125857;28;20058;-63
2023/06/21 09:48:41;;;;;;;5.82;4.18;;;;;;;23.91;51.85;101562.81;5125829;28;20107;-64
2023/06/21 09:51:11;;;;;;;5.85;4.25;;;;;;;23.94;51.78;101572.41;5125175;28;20076;-62
2023/06/21 09:53:42;;;;;;;5.47;3.83;;;;;;;23.94;52.09;101572.41;5122418;28;20069;-62
2023/06/21 09:56:13;;;;;;;5.03;3.90;;;;;;;23.96;51.90;101565.50;5109854;28;20055;-62
2023/06/21 09:58:43;;;;;;;5.10;3.90;;;;;;;23.97;51.67;101571.81;5122978;28;20056;-63
2023/06/21 10:01:14;;;;;;;7.18;3.95;;;;;;;23.99;51.64;101581.41;5120841;28;20048;-63
2023/06/21 10:03:45;;;;;;;4.35;3.40;;;;;;;24.00;51.76;101580.28;5118572;28;20051;-64
2023/06/21 10:06:16;;;;;;;4.65;3.60;;;;;;;24.04;51.13;101579.69;5122244;28;20431;-63
2023/06/21 10:08:49;;;;;;;6.93;3.75;;;;;;;24.02;51.32;101578.06;5123165;28;20081;-67
2023/06/21 10:11:17;;;;;;;7.07;4.28;;;;;;;24.07;50.93;101587.34;5118912;28;20067;-65
2023/06/21 10:13:48;;;;;;;4.10;3.33;;;;;;;24.09;51.26;101587.88;5123386;28;20421;-65
2023/06/21 10:16:17;;;;;;;4.25;2.80;;;;;;;24.10;50.92;101595.00;5118157;28;20101;-63
2023/06/21 10:18:47;;;;;;;3.90;3.38;;;;;;;24.11;51.42;101588.38;5123158;28;20126;-63
2023/06/21 10:21:16;;;;;;;5.05;3.67;;;;;;;24.13;51.42;101602.66;5117839;28;20047;-63
2023/06/21 10:23:49;;;;;;;4.03;3.30;;;;;;;24.14;51.38;101587.81;5119880;28;20072;-66
2023/06/21 10:26:20;;;;;;;3.47;2.88;;;;;;;24.19;51.23;101595.97;5117195;28;20458;-65
2023/06/21 10:28:55;;;;;;;5.15;3.33;;;;;;;24.20;51.26;101595.69;5115265;28;20040;-64
2023/06/21 10:31:25;;;;;;;4.87;3.33;;;;;;;24.23;50.95;101600.59;5113507;28;20054;-64
2023/06/21 10:33:56;;;;;;;5.18;3.05;;;;;;;24.27;50.83;101603.56;5116269;28;20063;-63
2023/06/21 10:36:31;;;;;;;4.38;3.10;;;;;;;24.29;51.01;101601.34;5119431;28;20048;-64
2023/06/21 10:39:06;;;;;;;7.10;3.00;;;;;;;24.31;50.86;101599.09;5119845;28;20048;-65
2023/06/21 10:41:34;;;;;;;3.65;2.53;;;;;;;24.36;50.58;101620.19;5117740;28;20460;-63
2023/06/21 10:44:06;;;;;;;3.45;2.70;;;;;;;24.38;50.46;101607.81;5121304;28;20052;-63
2023/06/21 10:46:36;;;;;;;4.30;2.80;;;;;;;24.41;50.33;101611.88;5118734;28;20089;-66
2023/06/21 10:49:04;;;;;;;3.20;2.50;;;;;;;24.42;50.61;101594.28;5118363;28;20151;-65
2023/06/21 10:51:36;;;;;;;3.92;2.60;;;;;;;24.46;50.32;101606.31;5121272;28;20258;-64
2023/06/21 10:54:04;;;;;;;3.28;2.53;;;;;;;24.47;50.37;101614.25;5110387;28;20074;-64
2023/06/21 10:56:34;;;;;;;4.03;2.90;;;;;;;24.50;50.35;101608.19;5113192;28;20055;-64
2023/06/21 10:59:02;;;;;;;4.03;2.90;;;;;;;24.52;50.27;101594.97;5118036;28;20044;-65
2023/06/21 11:01:32;;;;;;;3.25;2.70;;;;;;;24.55;50.56;101615.53;5120966;28;20052;-65
2023/06/21 11:04:00;;;;;;;3.17;2.33;;;;;;;24.55;50.64;101607.28;5122357;28;20043;-68
2023/06/21 11:06:30;;;;;;;4.57;2.90;;;;;;;24.58;50.02;101621.25;5125103;28;20111;-67
2023/06/21 11:09:10;;;;;;;3.97;2.53;;;;;;;24.58;50.10;101625.94;5113855;28;20043;-68
2023/06/21 11:11:40;;;;;;;4.75;2.78;;;;;;;24.61;50.08;101623.41;5112907;28;20039;-65
2023/06/21 11:14:08;;;;;;;3.78;2.80;;;;;;;24.63;50.06;101617.63;5121949;28;20058;-65
2023/06/21 11:16:39;;;;;;;2.88;2.58;;;;;;;24.62;49.88;101626.97;5123028;28;20058;-64
2023/06/21 11:19:09;;;;;;;6.32;2.63;;;;;;;24.64;49.93;101619.25;5114597;28;20044;-66
2023/06/21 11:21:42;;;;;;;3.50;2.10;;;;;;;24.63;49.86;101618.44;5121202;28;20039;-67
2023/06/21 11:24:11;;;;;;;3.30;2.30;;;;;;;24.69;49.73;101612.84;5120929;28;20684;-68
2023/06/21 11:26:58;;;;;;;4.35;2.50;;;;;;;24.73;50.07;101614.72;5120569;28;20097;-67
2023/06/21 11:29:27;;;;;;;7.68;2.60;;;;;;;24.78;49.97;101613.81;5115283;28;20043;-67
2023/06/21 11:32:10;;;;;;;4.85;2.53;;;;;;;24.84;49.72;101626.38;5120747;28;20058;-65
2023/06/21 11:34:51;;;;;;;5.60;2.70;;;;;;;24.87;49.93;101614.78;5123524;28;20054;-67
2023/06/21 11:37:35;;;;;;;3.65;2.60;;;;;;;24.91;49.78;101613.88;5123904;28;20104;-65
2023/06/21 11:40:06;;;;;;;3.75;2.30;;;;;;;24.97;49.64;101620.97;5118999;28;20057;-66